createdAt,value
2022-08-16T00:01:59.969Z,33.70
2022-08-16T00:04:37.171Z,33.80
2022-08-16T00:07:13.139Z,34.00
2022-08-16T00:09:46.565Z,34.10
2022-08-16T00:12:20.233Z,34.10
2022-08-16T00:14:56.898Z,34.30
2022-08-16T00:17:57.123Z,34.30
2022-08-16T00:20:31.503Z,34.60
2022-08-16T00:23:08.089Z,34.90
2022-08-16T00:26:35.310Z,35.10
2022-08-16T00:28:38.375Z,35.40
2022-08-16T00:31:13.863Z,35.40
2022-08-16T00:33:50.163Z,34.90
2022-08-16T00:36:24.767Z,34.60
2022-08-16T00:38:59.889Z,34.60
2022-08-16T00:41:38.219Z,34.40
2022-08-16T00:44:32.830Z,34.40
2022-08-16T00:47:10.862Z,34.20
2022-08-16T00:49:45.215Z,34.20
2022-08-16T00:52:30.889Z,34.40
2022-08-16T00:55:08.505Z,34.20
2022-08-16T00:57:58.656Z,33.90
2022-08-16T01:00:35.672Z,33.90
2022-08-16T01:03:14.078Z,33.80
2022-08-16T01:05:49.201Z,33.90
2022-08-16T01:08:36.473Z,33.90
2022-08-16T01:11:12.922Z,33.80
2022-08-16T01:13:48.043Z,33.70
2022-08-16T01:16:25.784Z,34.00
2022-08-16T01:19:05.714Z,34.00
2022-08-16T01:21:48.294Z,34.10
2022-08-16T01:24:51.600Z,33.80
2022-08-16T01:27:28.551Z,33.60
2022-08-16T01:30:06.162Z,33.50
2022-08-16T01:33:02.457Z,33.60
2022-08-16T01:35:53.317Z,33.30
2022-08-16T01:38:29.074Z,33.40
2022-08-16T01:41:07.346Z,33.50
2022-08-16T01:43:45.775Z,33.90
2022-08-16T01:46:40.149Z,34.00
2022-08-16T01:49:23.086Z,34.10
2022-08-16T01:52:03.586Z,34.00
2022-08-16T01:54:49.623Z,34.50
2022-08-16T01:57:28.822Z,35.00
2022-08-16T02:00:10.573Z,35.40
2022-08-16T02:02:54.088Z,35.60
2022-08-16T02:05:30.621Z,35.40
2022-08-16T02:08:08.528Z,35.70
2022-08-16T02:11:02.332Z,36.50
2022-08-16T02:13:41.781Z,36.50
2022-08-16T02:16:19.345Z,37.10
2022-08-16T02:18:54.053Z,37.00
2022-08-16T02:21:31.435Z,37.40
2022-08-16T02:24:32.143Z,37.30
2022-08-16T02:27:00.065Z,37.40
2022-08-16T02:29:41.493Z,37.40
2022-08-16T02:33:02.565Z,36.30
2022-08-16T02:35:13.085Z,36.30
2022-08-16T02:37:52.595Z,36.80
2022-08-16T02:40:30.625Z,37.80
2022-08-16T02:43:05.325Z,37.90
2022-08-16T02:45:41.210Z,37.90
2022-08-16T02:48:29.649Z,37.30
2022-08-16T02:51:11.452Z,37.90
2022-08-16T02:53:49.992Z,38.60
2022-08-16T02:56:36.641Z,38.70
2022-08-16T02:59:11.828Z,38.80
2022-08-16T03:01:51.833Z,38.90
2022-08-16T03:04:50.040Z,39.30
2022-08-16T03:07:28.087Z,39.00
2022-08-16T03:10:02.141Z,39.10
2022-08-16T03:12:55.676Z,39.30
2022-08-16T03:15:33.872Z,39.10
2022-08-16T03:18:12.689Z,39.60
2022-08-16T03:21:03.292Z,39.20
2022-08-16T03:23:38.439Z,39.00
2022-08-16T03:26:16.563Z,39.20
2022-08-16T03:28:55.462Z,39.90
2022-08-16T03:31:34.852Z,39.70
2022-08-16T03:34:19.744Z,39.90
2022-08-16T03:36:54.863Z,39.20
2022-08-16T03:39:28.711Z,38.60
2022-08-16T03:42:05.341Z,39.10
2022-08-16T03:44:49.566Z,39.40
2022-08-16T03:47:34.309Z,39.90
2022-08-16T03:50:26.234Z,39.90
2022-08-16T03:53:05.911Z,38.90
2022-08-16T03:55:45.506Z,38.80
2022-08-16T03:58:22.318Z,38.70
2022-08-16T04:00:59.121Z,38.80
2022-08-16T04:03:33.417Z,39.40
2022-08-16T04:06:10.845Z,40.10
2022-08-16T04:08:45.194Z,40.20
2022-08-16T04:11:19.792Z,40.30
2022-08-16T04:14:01.250Z,39.60
2022-08-16T04:16:47.319Z,39.90
2022-08-16T04:19:38.674Z,40.00
2022-08-16T04:22:27.541Z,40.30
2022-08-16T04:25:07.407Z,39.70
2022-08-16T04:27:54.258Z,39.90
2022-08-16T04:30:32.209Z,40.30
2022-08-16T04:33:09.982Z,40.00
2022-08-16T04:35:49.541Z,40.00
2022-08-16T04:38:25.782Z,39.70
2022-08-16T04:41:04.944Z,39.60
2022-08-16T04:43:43.701Z,39.40
2022-08-16T04:46:33.218Z,38.90
2022-08-16T04:49:13.375Z,38.50
2022-08-16T04:51:53.897Z,38.40
2022-08-16T04:54:31.383Z,38.80
2022-08-16T04:57:06.542Z,38.70
2022-08-16T04:59:40.374Z,38.70
2022-08-16T05:02:41.591Z,38.80
2022-08-16T05:05:17.179Z,38.60
2022-08-16T05:07:58.552Z,38.60
2022-08-16T05:10:40.734Z,39.00
2022-08-16T05:13:15.791Z,38.70
2022-08-16T05:15:50.537Z,38.30
2022-08-16T05:18:38.737Z,38.50
2022-08-16T05:21:12.724Z,38.20
2022-08-16T05:23:55.538Z,38.00
2022-08-16T05:26:35.978Z,38.30
2022-08-16T05:29:10.918Z,37.80
2022-08-16T05:31:55.940Z,37.80
2022-08-16T05:34:30.341Z,37.70
2022-08-16T05:37:03.979Z,37.80
2022-08-16T05:39:45.228Z,37.70
2022-08-16T05:42:22.287Z,37.90
2022-08-16T05:45:13.809Z,38.30
2022-08-16T05:47:59.558Z,38.70
2022-08-16T05:50:41.689Z,39.10
2022-08-16T05:53:15.350Z,39.20
2022-08-16T05:56:06.023Z,39.40
2022-08-16T05:58:46.065Z,39.40
2022-08-16T06:01:22.247Z,39.60
2022-08-16T06:03:58.709Z,38.80
2022-08-16T06:06:40.112Z,38.00
2022-08-16T06:09:15.549Z,38.20
2022-08-16T06:11:53.718Z,38.20
2022-08-16T06:14:30.045Z,38.20
2022-08-16T06:17:05.749Z,38.30
2022-08-16T06:19:48.272Z,38.60
2022-08-16T06:22:37.446Z,38.80
2022-08-16T06:25:15.088Z,39.10
2022-08-16T06:27:57.303Z,39.10
2022-08-16T06:30:43.340Z,39.30
2022-08-16T06:33:22.177Z,39.10
2022-08-16T06:36:00.107Z,38.80
2022-08-16T06:38:36.633Z,38.80
2022-08-16T06:41:21.535Z,38.70
2022-08-16T06:43:55.884Z,39.10
2022-08-16T06:46:38.850Z,39.40
2022-08-16T06:49:25.322Z,39.50
2022-08-16T06:52:02.651Z,39.30
2022-08-16T06:54:43.231Z,39.30
2022-08-16T06:57:24.398Z,39.30
2022-08-16T06:59:58.705Z,39.40
2022-08-16T07:02:51.444Z,39.40
2022-08-16T07:05:41.354Z,39.70
2022-08-16T07:08:27.382Z,39.80
2022-08-16T07:11:03.588Z,40.10
2022-08-16T07:14:03.946Z,40.00
2022-08-16T07:16:40.218Z,39.80
2022-08-16T07:19:19.532Z,39.80
2022-08-16T07:21:59.924Z,39.80
2022-08-16T07:24:35.684Z,39.90
2022-08-16T07:27:19.955Z,39.70
2022-08-16T07:29:55.558Z,39.90
2022-08-16T07:32:52.333Z,39.90
2022-08-16T07:35:29.622Z,39.60
2022-08-16T07:38:05.892Z,39.50
2022-08-16T07:40:59.517Z,39.10
2022-08-16T07:43:35.000Z,39.30
2022-08-16T07:46:39.126Z,39.30
2022-08-16T07:49:14.378Z,39.40
2022-08-16T07:51:54.334Z,39.40
2022-08-16T07:54:39.240Z,39.20
2022-08-16T07:57:20.121Z,39.40
2022-08-16T08:00:01.092Z,39.80
2022-08-16T08:02:37.629Z,40.30
2022-08-16T08:05:25.604Z,40.30
2022-08-16T08:08:51.531Z,40.30
2022-08-16T08:11:09.254Z,39.90
2022-08-16T08:13:43.752Z,40.00
2022-08-16T08:16:30.520Z,40.00
2022-08-16T08:19:06.460Z,40.20
2022-08-16T08:21:59.212Z,40.30
2022-08-16T08:24:47.072Z,40.60
2022-08-16T08:27:23.568Z,40.60
2022-08-16T08:30:49.508Z,40.30
2022-08-16T08:33:15.276Z,39.90
2022-08-16T08:35:50.980Z,39.80
2022-08-16T08:38:45.081Z,39.60
2022-08-16T08:41:31.023Z,39.50
2022-08-16T08:44:29.107Z,39.50
2022-08-16T08:47:04.744Z,39.50
2022-08-16T08:49:46.466Z,39.60
2022-08-16T08:52:34.623Z,39.50
2022-08-16T08:55:15.079Z,39.60
2022-08-16T08:57:52.280Z,39.90
2022-08-16T09:00:50.185Z,39.80
2022-08-16T09:03:27.943Z,39.90
2022-08-16T09:06:02.796Z,40.20
2022-08-16T09:08:41.477Z,40.10
2022-08-16T09:11:23.584Z,40.00
2022-08-16T09:14:23.616Z,40.20
2022-08-16T09:17:05.144Z,40.40
2022-08-16T09:19:49.314Z,40.10
2022-08-16T09:22:28.888Z,40.30
2022-08-16T09:25:11.197Z,40.20
2022-08-16T09:27:57.682Z,40.30
2022-08-16T09:30:44.327Z,40.30
2022-08-16T09:33:21.944Z,40.20
2022-08-16T09:36:00.292Z,40.30
2022-08-16T09:38:36.592Z,40.20
2022-08-16T09:41:16.234Z,40.00
2022-08-16T09:43:58.620Z,40.10
2022-08-16T09:46:48.473Z,40.00
2022-08-16T09:49:23.852Z,39.90
2022-08-16T09:51:57.633Z,40.00
2022-08-16T09:54:32.880Z,40.00
2022-08-16T09:57:07.628Z,39.90
2022-08-16T09:59:48.087Z,39.70
2022-08-16T10:02:32.305Z,39.40
2022-08-16T10:05:07.550Z,38.80
2022-08-16T10:07:45.025Z,38.50
2022-08-16T10:10:30.905Z,38.20
2022-08-16T10:13:18.211Z,38.10
2022-08-16T10:15:58.771Z,38.20
2022-08-16T10:19:00.795Z,38.10
2022-08-16T10:21:32.177Z,38.30
2022-08-16T10:24:06.885Z,38.30
2022-08-16T10:27:17.501Z,38.20
2022-08-16T10:30:01.365Z,38.20
2022-08-16T10:32:30.309Z,38.40
2022-08-16T10:35:07.149Z,38.30
2022-08-16T10:37:40.390Z,38.40
2022-08-16T10:40:29.344Z,38.40
2022-08-16T10:43:04.820Z,38.40
2022-08-16T10:45:42.470Z,38.10
2022-08-16T10:48:35.049Z,38.50
2022-08-16T10:51:16.181Z,38.20
2022-08-16T10:53:49.842Z,37.90
2022-08-16T10:56:56.224Z,37.80
2022-08-16T10:59:44.578Z,37.70
2022-08-16T11:02:57.653Z,37.80
2022-08-16T11:05:14.352Z,37.70
2022-08-16T11:07:53.427Z,37.60
2022-08-16T11:16:26.810Z,37.20
2022-08-16T11:19:06.056Z,37.30
2022-08-16T11:24:44.870Z,37.10
2022-08-16T11:27:23.739Z,37.30
2022-08-16T11:30:00.191Z,37.00
2022-08-16T11:32:36.039Z,37.00
2022-08-16T11:35:15.553Z,37.10
2022-08-16T11:38:47.073Z,37.10
2022-08-16T11:40:52.541Z,37.10
2022-08-16T11:43:30.074Z,37.00
2022-08-16T11:46:44.521Z,36.80
2022-08-16T11:49:04.407Z,36.70
2022-08-16T11:51:37.413Z,36.60
2022-08-16T11:54:20.613Z,36.60
2022-08-16T11:56:57.649Z,36.60
2022-08-16T11:59:32.780Z,36.60
2022-08-16T12:02:32.645Z,36.60
2022-08-16T12:05:10.095Z,36.70
2022-08-16T12:07:45.982Z,36.70
2022-08-16T12:10:23.171Z,36.70
2022-08-16T12:13:06.215Z,36.80
2022-08-16T12:15:44.539Z,36.90
2022-08-16T12:18:22.050Z,36.80
2022-08-16T12:20:58.220Z,36.80
2022-08-16T12:23:33.307Z,36.60
2022-08-16T12:26:10.367Z,36.60
2022-08-16T12:28:56.225Z,36.60
2022-08-16T12:31:31.503Z,36.60
2022-08-16T12:34:09.364Z,36.60
2022-08-16T12:36:53.752Z,36.40
2022-08-16T12:39:31.293Z,36.30
2022-08-16T12:42:06.518Z,36.20
2022-08-16T12:44:43.321Z,36.20
2022-08-16T12:47:42.026Z,36.30
2022-08-16T12:50:18.252Z,36.30
2022-08-16T12:52:54.327Z,36.20
2022-08-16T12:55:33.580Z,36.20
2022-08-16T12:58:48.856Z,36.20
2022-08-16T13:01:16.034Z,36.10
2022-08-16T13:03:59.089Z,36.10
2022-08-16T13:06:42.570Z,36.10
2022-08-16T13:09:28.722Z,35.90
2022-08-16T13:12:10.467Z,35.80
2022-08-16T13:14:46.416Z,35.60
2022-08-16T13:17:29.521Z,35.60
2022-08-16T13:20:08.285Z,35.50
2022-08-16T13:22:55.228Z,35.50
2022-08-16T13:25:37.969Z,35.50
2022-08-16T13:28:15.145Z,35.40
2022-08-16T13:30:55.079Z,35.40
2022-08-16T13:33:38.545Z,35.20
2022-08-16T13:36:32.294Z,35.20
2022-08-16T13:39:11.593Z,35.10
2022-08-16T13:41:53.798Z,35.00
2022-08-16T13:44:46.501Z,35.00
2022-08-16T13:47:30.344Z,35.00
2022-08-16T13:50:17.571Z,34.90
2022-08-16T13:53:06.692Z,34.90
2022-08-16T13:55:41.112Z,34.80
2022-08-16T13:58:36.492Z,34.90
2022-08-16T14:01:10.851Z,34.90
2022-08-16T14:03:47.710Z,34.80
2022-08-16T14:06:24.907Z,34.80
2022-08-16T14:09:06.480Z,34.80
2022-08-16T14:11:47.449Z,34.70
2022-08-16T14:14:29.165Z,34.60
2022-08-16T14:17:12.940Z,34.70
2022-08-16T14:19:48.051Z,34.60
2022-08-16T14:22:34.864Z,34.60
2022-08-16T14:25:19.357Z,34.60
2022-08-16T14:27:56.194Z,34.80
2022-08-16T14:30:32.662Z,34.80
2022-08-16T14:33:08.509Z,34.90
2022-08-16T14:35:48.901Z,34.90
2022-08-16T14:38:26.266Z,34.90
2022-08-16T14:41:12.191Z,34.90
2022-08-16T14:43:47.218Z,34.90
2022-08-16T14:46:24.517Z,34.80
2022-08-16T14:49:02.351Z,34.80
2022-08-16T14:51:38.236Z,34.80
2022-08-16T14:54:15.680Z,34.70
2022-08-16T14:56:54.954Z,34.70
2022-08-16T14:59:30.914Z,34.70
2022-08-16T15:02:42.516Z,34.60
2022-08-16T15:05:18.468Z,34.60
2022-08-16T15:07:55.719Z,34.60
2022-08-16T15:10:37.194Z,34.60
2022-08-16T15:13:15.610Z,34.60
2022-08-16T15:15:58.860Z,34.70
2022-08-16T15:18:35.786Z,34.70
2022-08-16T15:21:10.869Z,34.70
2022-08-16T15:23:46.725Z,34.70
2022-08-16T15:26:34.614Z,34.70
2022-08-16T15:29:17.045Z,34.70
2022-08-16T15:32:00.618Z,34.70
2022-08-16T15:34:36.761Z,34.70
2022-08-16T15:37:12.384Z,34.60
2022-08-16T15:39:48.925Z,34.50
2022-08-16T15:42:34.563Z,34.50
2022-08-16T15:45:12.295Z,34.50
2022-08-16T15:47:55.552Z,34.60
2022-08-16T15:50:30.530Z,34.60
2022-08-16T15:53:13.177Z,34.60
2022-08-16T15:55:51.058Z,34.60
2022-08-16T15:58:35.600Z,34.70
2022-08-16T16:01:13.884Z,34.70
2022-08-16T16:03:49.519Z,34.70
2022-08-16T16:06:28.011Z,34.70
2022-08-16T16:09:04.849Z,34.70
2022-08-16T16:11:42.529Z,34.70
2022-08-16T16:14:19.858Z,34.70
2022-08-16T16:16:54.414Z,34.40
2022-08-16T16:19:30.517Z,34.30
2022-08-16T16:22:08.785Z,34.30
2022-08-16T16:24:45.873Z,34.40
2022-08-16T16:27:21.917Z,34.50
2022-08-16T16:30:01.868Z,34.60
2022-08-16T16:32:36.857Z,34.60
2022-08-16T16:35:18.473Z,34.50
2022-08-16T16:37:54.790Z,34.50
2022-08-16T16:40:33.064Z,34.50
2022-08-16T16:43:16.857Z,34.50
2022-08-16T16:45:53.652Z,34.50
2022-08-16T16:48:34.553Z,34.40
2022-08-16T16:51:12.222Z,34.40
2022-08-16T16:53:55.888Z,34.30
2022-08-16T16:56:37.584Z,34.30
2022-08-16T16:59:14.628Z,34.20
2022-08-16T17:02:00.172Z,34.10
2022-08-16T17:04:48.989Z,33.90
2022-08-16T17:07:24.405Z,33.90
2022-08-16T17:09:59.500Z,33.90
2022-08-16T17:12:46.825Z,33.90
2022-08-16T17:15:23.192Z,33.90
2022-08-16T17:18:01.935Z,33.80
2022-08-16T17:20:38.535Z,33.90
2022-08-16T17:23:13.485Z,33.80
2022-08-16T17:25:52.172Z,33.90
2022-08-16T17:28:58.201Z,33.90
2022-08-16T17:31:20.975Z,34.00
2022-08-16T17:34:30.259Z,33.80
2022-08-16T17:37:08.007Z,33.80
2022-08-16T17:39:57.228Z,33.70
2022-08-16T17:42:34.475Z,33.60
2022-08-16T17:45:08.901Z,33.60
2022-08-16T17:47:42.517Z,33.60
2022-08-16T17:50:18.345Z,33.50
2022-08-16T17:52:54.507Z,33.60
2022-08-16T17:55:31.850Z,33.70
2022-08-16T17:58:18.077Z,33.80
2022-08-16T18:00:58.612Z,33.80
2022-08-16T18:04:02.554Z,33.80
2022-08-16T18:06:34.133Z,33.80
2022-08-16T18:09:13.256Z,33.60
2022-08-16T18:11:48.227Z,33.60
2022-08-16T18:14:51.256Z,33.60
2022-08-16T18:17:21.341Z,33.60
2022-08-16T18:19:58.825Z,33.60
2022-08-16T18:22:52.581Z,33.60
2022-08-16T18:25:28.062Z,33.70
2022-08-16T18:28:02.205Z,33.70
2022-08-16T18:30:50.938Z,33.80
2022-08-16T18:33:29.834Z,33.80
2022-08-16T18:36:05.040Z,33.70
2022-08-16T18:38:57.817Z,33.60
2022-08-16T18:41:32.665Z,33.50
2022-08-16T18:44:25.388Z,33.40
2022-08-16T18:47:05.569Z,33.40
2022-08-16T18:49:39.349Z,33.40
2022-08-16T18:52:25.780Z,33.30
2022-08-16T18:55:13.505Z,33.20
2022-08-16T18:57:48.469Z,33.20
2022-08-16T19:00:45.691Z,33.20
2022-08-16T19:03:33.395Z,33.30
2022-08-16T19:06:13.753Z,33.30
2022-08-16T19:08:50.550Z,33.40
2022-08-16T19:11:30.572Z,33.30
2022-08-16T19:14:06.030Z,33.10
2022-08-16T19:16:46.914Z,32.60
2022-08-16T19:19:22.697Z,32.50
2022-08-16T19:21:56.892Z,32.20
2022-08-16T19:24:30.631Z,32.10
2022-08-16T19:27:07.491Z,32.10
2022-08-16T19:29:40.910Z,32.00
2022-08-16T19:32:22.151Z,31.90
2022-08-16T19:34:56.507Z,32.10
2022-08-16T19:37:30.218Z,32.20
2022-08-16T19:40:03.915Z,32.10
2022-08-16T19:43:03.538Z,32.00
2022-08-16T19:45:45.978Z,32.00
2022-08-16T19:48:20.446Z,32.00
2022-08-16T19:50:54.584Z,32.20
2022-08-16T19:53:28.928Z,32.20
2022-08-16T19:56:01.963Z,32.10
2022-08-16T19:58:37.560Z,32.00
2022-08-16T20:01:11.513Z,32.00
2022-08-16T20:03:45.209Z,32.00
2022-08-16T20:06:35.779Z,31.90
2022-08-16T20:09:15.016Z,31.70
2022-08-16T20:11:50.174Z,31.40
2022-08-16T20:14:26.473Z,31.40
2022-08-16T20:17:02.432Z,31.50
2022-08-16T20:19:40.080Z,31.40
2022-08-16T20:22:52.541Z,31.50
2022-08-16T20:25:29.639Z,31.30
2022-08-16T20:28:04.912Z,31.30
2022-08-16T20:30:40.893Z,31.30
2022-08-16T20:33:18.639Z,31.20
2022-08-16T20:35:53.507Z,31.20
2022-08-16T20:38:39.326Z,31.20
2022-08-16T20:41:12.462Z,31.30
2022-08-16T20:43:48.676Z,31.50
2022-08-16T20:46:24.983Z,31.50
2022-08-16T20:49:03.106Z,31.50
2022-08-16T20:51:46.679Z,31.50
2022-08-16T20:54:20.974Z,31.60
2022-08-16T20:56:55.203Z,31.70
2022-08-16T20:59:28.563Z,31.70
2022-08-16T21:02:04.881Z,31.60
2022-08-16T21:04:39.095Z,31.50
2022-08-16T21:07:14.023Z,31.40
2022-08-16T21:09:47.877Z,31.20
2022-08-16T21:12:22.134Z,31.10
2022-08-16T21:14:59.188Z,31.00
2022-08-16T21:17:34.899Z,30.90
2022-08-16T21:20:09.556Z,30.80
2022-08-16T21:22:43.547Z,30.90
2022-08-16T21:25:18.387Z,30.70
2022-08-16T21:28:40.480Z,30.60
2022-08-16T21:30:51.577Z,30.60
2022-08-16T21:33:27.428Z,30.70
2022-08-16T21:36:01.201Z,30.80
2022-08-16T21:38:35.405Z,30.70
2022-08-16T21:41:11.979Z,30.70
2022-08-16T21:43:46.059Z,30.60
2022-08-16T21:46:27.689Z,30.50
2022-08-16T21:49:04.673Z,30.50
2022-08-16T21:51:39.868Z,30.40
2022-08-16T21:54:13.884Z,30.30
2022-08-16T21:56:48.141Z,30.40
2022-08-16T21:59:22.919Z,30.40
2022-08-16T22:01:57.059Z,30.30
2022-08-16T22:04:37.316Z,30.30
2022-08-16T22:07:19.694Z,30.30
2022-08-16T22:09:53.508Z,30.40
2022-08-16T22:12:31.946Z,30.30
2022-08-16T22:15:07.068Z,30.20
2022-08-16T22:17:41.139Z,30.20
2022-08-16T22:20:19.694Z,30.20
2022-08-16T22:22:53.560Z,30.10
2022-08-16T22:25:27.375Z,30.10
2022-08-16T22:28:01.225Z,30.20
2022-08-16T22:30:35.088Z,30.00
2022-08-16T22:33:14.429Z,30.00
2022-08-16T22:35:55.857Z,30.10
2022-08-16T22:38:53.886Z,30.10
2022-08-16T22:41:24.311Z,30.10
2022-08-16T22:43:58.484Z,30.20
2022-08-16T22:46:33.022Z,30.30
2022-08-16T22:49:07.261Z,30.40
2022-08-16T22:51:44.058Z,30.30
2022-08-16T22:54:39.260Z,30.30
2022-08-16T22:57:11.992Z,30.40
2022-08-16T22:59:46.251Z,30.60
2022-08-16T23:02:20.800Z,30.70
2022-08-16T23:04:57.588Z,30.80
2022-08-16T23:07:34.009Z,30.70
2022-08-16T23:10:08.546Z,30.80
2022-08-16T23:12:52.727Z,30.90
2022-08-16T23:15:28.380Z,31.10
2022-08-16T23:18:03.300Z,30.90
2022-08-16T23:20:39.600Z,31.30
2022-08-16T23:23:19.165Z,31.60
2022-08-16T23:25:56.722Z,31.60
2022-08-16T23:28:32.920Z,31.70
2022-08-16T23:31:08.885Z,31.50
2022-08-16T23:33:43.622Z,31.20
2022-08-16T23:36:18.069Z,31.00
2022-08-16T23:38:53.831Z,30.70
2022-08-16T23:41:27.865Z,30.80
2022-08-16T23:44:57.768Z,31.00
2022-08-16T23:46:59.701Z,31.20
2022-08-16T23:50:01.596Z,31.30
2022-08-16T23:52:42.204Z,31.20
2022-08-16T23:55:25.067Z,31.40
2022-08-16T23:57:59.286Z,31.30
